M I D A S
Marine Information and Data Acquisition System
Tripno 1670 of the Zeeleeuw from 2009-03-31 07:21:19 to 2009-04-01 14:27:32
Back to CruiseResearch ActivitiesStationsMapUnderway DataData graphs

EquipmentUnitsComment
TimeDGPSUTC
LatitudeDGPSDM.mWGS84
LongitudeDGPSDM.mWGS84
HeadingGyrodeg 
SOGDGPSknotsSpeed over ground
COGDGPSdegCourse over ground
DepthEcho soundermeters200 kHz
Missing or incorrect values are displayed as -999
Navigation data collected by the RV Zeeleeuw from 2009-03-31 07:09:06 to 2009-04-01 14:30:45
                                                                                    Next 1000 lines
Time Latitude Longitude Heading SOG COG Depth
2009-03-31 07:09:16 51°13.662 2°55.958 113 0.9 294 5.7
2009-03-31 07:09:21 51°13.662 2°55.956 113 1.1 292 5.7
2009-03-31 07:09:26 51°13.663 2°55.953 113.1 1.5 294 5.8
2009-03-31 07:09:31 51°13.664 2°55.95 113.3 1.6 296 5.8
2009-03-31 07:09:36 51°13.665 2°55.946 113.6 1.8 297 -999
2009-03-31 07:09:42 51°13.667 2°55.942 114 1.9 298 -999
2009-03-31 07:09:48 51°13.668 2°55.937 114.1 2 298 -999
2009-03-31 07:09:53 51°13.67 2°55.933 114.1 2.1 298 -999
2009-03-31 07:09:59 51°13.671 2°55.928 114.1 2.2 298 -999
2009-03-31 07:10:05 51°13.673 2°55.923 114 2.3 297 -999
2009-03-31 07:10:10 51°13.674 2°55.918 113.5 2.4 296 -999
2009-03-31 07:10:15 51°13.676 2°55.913 113 2.4 296 -999
2009-03-31 07:10:20 51°13.677 2°55.908 112.3 2.5 294 -999
2009-03-31 07:10:24 51°13.679 2°55.904 111.4 2.6 294 -999
2009-03-31 07:10:30 51°13.681 2°55.897 110.5 2.7 294 -999
2009-03-31 07:10:35 51°13.682 2°55.892 109.7 2.7 292 -999
2009-03-31 07:10:40 51°13.683 2°55.886 108.6 2.8 290 -999
2009-03-31 07:10:44 51°13.684 2°55.881 107.9 2.8 291 -999
2009-03-31 07:10:50 51°13.686 2°55.874 106.7 2.8 289 -999
2009-03-31 07:10:55 51°13.687 2°55.868 105.5 2.9 288 -999
2009-03-31 07:11:00 51°13.688 2°55.862 104.2 2.8 287 -999
2009-03-31 07:11:04 51°13.689 2°55.857 103 2.9 287 -999
2009-03-31 07:11:10 51°13.691 2°55.849 101.7 3 284 -999
2009-03-31 07:11:15 51°13.691 2°55.843 100.5 3 283 -999
2009-03-31 07:11:20 51°13.692 2°55.836 99.1 3 282 -999
2009-03-31 07:11:24 51°13.693 2°55.831 98.1 3.1 281 -999
2009-03-31 07:11:30 51°13.694 2°55.823 97 3.1 280 -999
2009-03-31 07:11:35 51°13.695 2°55.816 95.9 3 279 -999
2009-03-31 07:11:40 51°13.695 2°55.81 94.9 3 279 -999
2009-03-31 07:11:45 51°13.696 2°55.803 93.8 2.9 276 -999
2009-03-31 07:11:50 51°13.696 2°55.797 92.8 2.8 278 -999
2009-03-31 07:11:55 51°13.697 2°55.791 91.7 2.7 276 -999
2009-03-31 07:12:00 51°13.697 2°55.785 90.6 2.7 275 -999
2009-03-31 07:12:05 51°13.697 2°55.78 89.5 2.5 275 -999
2009-03-31 07:12:10 51°13.698 2°55.774 88.5 2.5 275 4.6
2009-03-31 07:12:14 51°13.698 2°55.77 87.7 2.3 275 11.2
2009-03-31 07:12:20 51°13.698 2°55.765 87.1 2 278 4.7
2009-03-31 07:12:24 51°13.698 2°55.762 86.5 1.5 277 11.6
2009-03-31 07:12:29 51°13.699 2°55.759 85 1.1 288 11.6
2009-03-31 07:12:34 51°13.699 2°55.758 81.8 0.7 284 12.1
2009-03-31 07:12:39 51°13.7 2°55.757 77.5 0.7 309 11.6
2009-03-31 07:12:44 51°13.7 2°55.756 73.5 0.4 314 11.6
2009-03-31 07:12:49 51°13.701 2°55.755 68.3 0.6 331 11.6
2009-03-31 07:12:53 51°13.702 2°55.755 64 0.4 344 11.6
2009-03-31 07:12:58 51°13.702 2°55.755 60 0.6 351 11.6
2009-03-31 07:13:03 51°13.703 2°55.755 56.7 0.6 4 11.5
2009-03-31 07:13:08 51°13.704 2°55.755 51.8 0.7 3 11.6
2009-03-31 07:13:13 51°13.705 2°55.755 47.7 0.8 6 11.6
2009-03-31 07:13:18 51°13.707 2°55.756 43.7 1 14 11.6
2009-03-31 07:13:23 51°13.708 2°55.756 39.3 1.1 8 11.5
2009-03-31 07:13:28 51°13.71 2°55.756 34.5 1 6 11.5
2009-03-31 07:13:33 51°13.711 2°55.756 30.6 0.9 358 11.5
2009-03-31 07:13:38 51°13.711 2°55.756 27.6 0.6 350 11.5
2009-03-31 07:13:42 51°13.712 2°55.755 25 0.4 306 11.5
2009-03-31 07:13:47 51°13.712 2°55.755 21 0.3 270 11.5
2009-03-31 07:13:52 51°13.711 2°55.754 17.9 0.5 243 11.5
2009-03-31 07:13:57 51°13.711 2°55.753 15.2 0.5 236 11.5
2009-03-31 07:14:02 51°13.711 2°55.752 13.2 0.5 240 11.5
2009-03-31 07:14:07 51°13.711 2°55.751 10.6 0.5 235 11.5
2009-03-31 07:14:12 51°13.71 2°55.75 9.1 0.5 232 11.5
2009-03-31 07:14:16 51°13.71 2°55.749 7 0.4 249 11.5
2009-03-31 07:14:21 51°13.71 2°55.748 5.7 0.6 303 11.5
2009-03-31 07:14:26 51°13.711 2°55.747 2.5 1.1 335 11.4
2009-03-31 07:14:31 51°13.713 2°55.746 358.5 1.7 337 11.4
2009-03-31 07:14:36 51°13.716 2°55.744 350 2.1 337 11.3
2009-03-31 07:14:41 51°13.719 2°55.742 342.1 2.5 330 11.3
2009-03-31 07:14:46 51°13.723 2°55.738 335.8 3.2 331 11.3
2009-03-31 07:14:51 51°13.727 2°55.734 331.8 3.7 324 11.3
2009-03-31 07:14:56 51°13.732 2°55.728 327.8 4.1 325 11.4
2009-03-31 07:15:01 51°13.737 2°55.723 326.5 4.5 324 11.4
2009-03-31 07:15:06 51°13.742 2°55.716 326.4 4.9 326 11.3
2009-03-31 07:15:11 51°13.748 2°55.71 327.5 5.1 326 11
2009-03-31 07:15:16 51°13.754 2°55.704 328.4 5.3 327 10.3
2009-03-31 07:15:21 51°13.76 2°55.697 329 5.3 327 10.2
2009-03-31 07:15:26 51°13.767 2°55.691 329.6 5.4 328 10.1
2009-03-31 07:15:31 51°13.773 2°55.685 330.1 5.4 328 10.1
2009-03-31 07:15:36 51°13.779 2°55.679 330.9 5.4 330 10.1
2009-03-31 07:15:41 51°13.786 2°55.673 331.8 5.3 331 10.1
2009-03-31 07:15:46 51°13.792 2°55.667 332.6 5.2 332 10.1
2009-03-31 07:15:51 51°13.798 2°55.662 334 5.1 333 10
2009-03-31 07:15:56 51°13.805 2°55.657 335 5.1 334 10.1
2009-03-31 07:16:01 51°13.811 2°55.652 335.4 5 334 10
2009-03-31 07:16:06 51°13.817 2°55.648 335.6 5 335 10
2009-03-31 07:16:11 51°13.823 2°55.643 335.9 4.9 335 10
2009-03-31 07:16:16 51°13.829 2°55.638 336.2 4.9 335 10
2009-03-31 07:16:21 51°13.836 2°55.634 336.8 4.8 336 9.9
2009-03-31 07:16:26 51°13.842 2°55.63 337 4.8 336 9.9
2009-03-31 07:16:31 51°13.848 2°55.626 337.2 4.8 335 10
2009-03-31 07:16:36 51°13.854 2°55.621 337.7 4.8 337 9.9
2009-03-31 07:16:41 51°13.86 2°55.617 338.4 4.8 337 9.7
2009-03-31 07:16:46 51°13.866 2°55.613 338.6 4.9 337 10.3
2009-03-31 07:16:51 51°13.873 2°55.609 338.4 5 336 10.5
2009-03-31 07:16:56 51°13.879 2°55.604 337.7 5.1 336 10.5
2009-03-31 07:17:01 51°13.886 2°55.599 337.5 5.3 336 10.5
2009-03-31 07:17:06 51°13.893 2°55.594 337.5 5.5 336 10.5
2009-03-31 07:17:11 51°13.9 2°55.589 337.6 5.7 336 10.5
2009-03-31 07:17:16 51°13.907 2°55.584 337.8 5.9 336 10.5
2009-03-31 07:17:21 51°13.915 2°55.578 337.8 6.1 336 10.5
2009-03-31 07:17:26 51°13.923 2°55.573 337.6 6.5 336 10.4
2009-03-31 07:17:31 51°13.932 2°55.567 337.4 6.8 336 10.5
2009-03-31 07:17:36 51°13.941 2°55.56 337.5 7.1 337 10.4
2009-03-31 07:17:41 51°13.95 2°55.554 337.5 7.3 336 10.4
2009-03-31 07:17:46 51°13.96 2°55.547 338 7.6 337 10.4
2009-03-31 07:17:51 51°13.969 2°55.54 338.2 7.8 336 10.5
2009-03-31 07:17:56 51°13.98 2°55.533 338.2 8 337 10.4
2009-03-31 07:18:01 51°13.99 2°55.526 338.3 8.2 337 10.4
2009-03-31 07:18:06 51°14.001 2°55.518 337.6 8.5 335 10.2
2009-03-31 07:18:11 51°14.012 2°55.51 337 8.6 335 10.4
2009-03-31 07:18:16 51°14.023 2°55.502 336.9 8.8 336 10.4
2009-03-31 07:18:21 51°14.034 2°55.494 336.8 8.9 335 10.4
2009-03-31 07:18:26 51°14.045 2°55.485 336.3 9 335 10.4
2009-03-31 07:18:31 51°14.056 2°55.477 336.3 9.1 335 10.4
2009-03-31 07:18:36 51°14.068 2°55.468 336.2 9.2 334 10.4
2009-03-31 07:18:41 51°14.079 2°55.459 336.1 9.2 334 10.3
2009-03-31 07:18:46 51°14.091 2°55.45 335.5 9.3 333 10.4
2009-03-31 07:18:51 51°14.103 2°55.441 335.2 9.3 333 10.4
2009-03-31 07:18:56 51°14.114 2°55.431 334.5 9.3 332 10.4
2009-03-31 07:19:01 51°14.125 2°55.421 333.5 9.3 331 10.4
2009-03-31 07:19:06 51°14.137 2°55.411 332.6 9.4 330 10.4
2009-03-31 07:19:11 51°14.148 2°55.401 332.2 9.4 330 10.4
2009-03-31 07:19:16 51°14.159 2°55.39 331.8 9.4 328 10.4
2009-03-31 07:19:21 51°14.17 2°55.379 331 9.4 329 10.4
2009-03-31 07:19:26 51°14.181 2°55.367 329.5 9.5 326 10.4
2009-03-31 07:19:31 51°14.192 2°55.355 328.2 9.6 325 10.4
2009-03-31 07:19:36 51°14.203 2°55.343 326.9 9.6 324 10.4
2009-03-31 07:19:41 51°14.213 2°55.33 325.5 9.6 322 10.5
2009-03-31 07:19:46 51°14.224 2°55.317 324 9.7 321 10.5
2009-03-31 07:19:51 51°14.234 2°55.302 322.4 9.7 319 10.5
2009-03-31 07:19:56 51°14.244 2°55.288 320.8 9.8 318 10.4
2009-03-31 07:20:01 51°14.254 2°55.273 318.8 9.8 316 10.2
2009-03-31 07:20:06 51°14.263 2°55.257 317 9.8 315 10.4
2009-03-31 07:20:11 51°14.273 2°55.242 316.1 9.9 314 10.4
2009-03-31 07:20:16 51°14.283 2°55.226 315.2 10 313 10.4
2009-03-31 07:20:21 51°14.292 2°55.209 314.5 10.1 313 10.3
2009-03-31 07:20:26 51°14.302 2°55.193 314.4 10.1 314 10.5
2009-03-31 07:20:31 51°14.312 2°55.177 314.4 10.2 312 10.5
2009-03-31 07:20:36 51°14.321 2°55.16 314.3 10.3 313 10.5
2009-03-31 07:20:41 51°14.331 2°55.143 313.5 10.3 311 10.6
2009-03-31 07:20:46 51°14.34 2°55.126 312.9 10.4 312 10.6
2009-03-31 07:20:51 51°14.35 2°55.108 312.9 10.5 311 10.6
2009-03-31 07:20:56 51°14.359 2°55.09 312.6 10.5 311 10.6
2009-03-31 07:21:01 51°14.369 2°55.073 312.3 10.6 310 10.7
2009-03-31 07:21:06 51°14.379 2°55.055 312.4 10.7 311 10.4
2009-03-31 07:21:11 51°14.388 2°55.037 312.4 10.7 310 10.3
2009-03-31 07:21:16 51°14.398 2°55.018 311.6 10.8 309 10.3
2009-03-31 07:21:21 51°14.407 2°55 311.6 10.9 310 10.1
2009-03-31 07:21:26 51°14.417 2°54.981 311.5 11 308 10
2009-03-31 07:21:31 51°14.426 2°54.961 310.5 11 307 10.1
2009-03-31 07:21:36 51°14.435 2°54.941 309.6 11.1 305 10.1
2009-03-31 07:21:41 51°14.443 2°54.921 308.6 11.1 304 10.2
2009-03-31 07:21:46 51°14.452 2°54.9 307.6 11.2 304 10.3
2009-03-31 07:21:51 51°14.46 2°54.879 307.1 11.3 303 10.3
2009-03-31 07:21:56 51°14.469 2°54.858 306.9 11.4 304 10.3
2009-03-31 07:22:01 51°14.478 2°54.837 307.2 11.4 303 10.3
2009-03-31 07:22:06 51°14.486 2°54.816 306.5 11.5 302 10.3
2009-03-31 07:22:11 51°14.495 2°54.794 305.7 11.6 302 10.3
2009-03-31 07:22:16 51°14.503 2°54.772 305.6 11.7 302 10.4
2009-03-31 07:22:21 51°14.512 2°54.75 305.8 11.8 302 10.4
2009-03-31 07:22:26 51°14.52 2°54.727 305.7 11.9 300 10.2
2009-03-31 07:22:31 51°14.528 2°54.704 304.6 12 299 10.2
2009-03-31 07:22:36 51°14.536 2°54.681 303.5 12.1 299 10.1
2009-03-31 07:22:41 51°14.545 2°54.658 303.5 12.2 300 10.1
2009-03-31 07:22:46 51°14.553 2°54.634 304 12.3 300 10
2009-03-31 07:22:51 51°14.562 2°54.611 304.4 12.3 300 10
2009-03-31 07:22:56 51°14.57 2°54.587 304.6 12.4 299 10
2009-03-31 07:23:01 51°14.579 2°54.563 304.6 12.5 300 10
2009-03-31 07:23:06 51°14.587 2°54.538 304.6 12.6 298 10
2009-03-31 07:23:11 51°14.595 2°54.514 304 12.6 298 10
2009-03-31 07:23:16 51°14.604 2°54.489 303.5 12.6 299 10
2009-03-31 07:23:21 51°14.612 2°54.465 304 12.6 299 10
2009-03-31 07:23:26 51°14.62 2°54.44 304.2 12.6 299 10.1
2009-03-31 07:23:31 51°14.629 2°54.416 304.2 12.6 298 10
2009-03-31 07:23:36 51°14.637 2°54.391 303.2 12.6 297 10.1
2009-03-31 07:23:41 51°14.645 2°54.366 302.7 12.7 297 10
2009-03-31 07:23:46 51°14.652 2°54.341 302.1 12.7 297 10
2009-03-31 07:23:51 51°14.661 2°54.316 302.1 12.7 297 10.1
2009-03-31 07:23:56 51°14.669 2°54.291 302.4 12.7 298 10
2009-03-31 07:24:01 51°14.677 2°54.267 303 12.7 298 10
2009-03-31 07:24:06 51°14.686 2°54.242 303.5 12.7 299 10.5
2009-03-31 07:24:11 51°14.694 2°54.218 303.7 12.7 299 10
2009-03-31 07:24:16 51°14.703 2°54.193 303.8 12.7 299 10
2009-03-31 07:24:21 51°14.711 2°54.169 304.1 12.7 299 9.9
2009-03-31 07:24:26 51°14.72 2°54.144 304.2 12.7 299 9.9
2009-03-31 07:24:31 51°14.728 2°54.12 304.2 12.7 299 9.8
2009-03-31 07:24:36 51°14.737 2°54.095 303.8 12.7 299 9.7
2009-03-31 07:24:41 51°14.745 2°54.071 303.5 12.7 299 9.7
2009-03-31 07:24:46 51°14.754 2°54.046 303.7 12.6 299 9.8
2009-03-31 07:24:51 51°14.762 2°54.022 304.2 12.6 299 9.6
2009-03-31 07:24:56 51°14.771 2°53.998 304.4 12.6 299 9.6
2009-03-31 07:25:01 51°14.779 2°53.973 304.4 12.6 299 9.4
2009-03-31 07:25:06 51°14.788 2°53.949 304 12.6 299 9.3
2009-03-31 07:25:11 51°14.796 2°53.925 303.7 12.6 299 9.3
2009-03-31 07:25:16 51°14.805 2°53.9 304 12.5 298 9.4
2009-03-31 07:25:21 51°14.813 2°53.876 303.8 12.5 298 9.3
2009-03-31 07:25:26 51°14.82 2°53.85 300.9 12.6 293 9.3
2009-03-31 07:25:31 51°14.827 2°53.825 299 12.6 294 9.4
2009-03-31 07:25:36 51°14.833 2°53.799 297.5 12.6 290 9.4
2009-03-31 07:25:41 51°14.84 2°53.773 295.8 12.6 292 9.3
2009-03-31 07:25:46 51°14.845 2°53.746 293.5 12.7 287 9.3
2009-03-31 07:25:51 51°14.85 2°53.719 291.5 12.7 288 9.4
2009-03-31 07:25:56 51°14.855 2°53.692 290.3 12.7 285 9.4
2009-03-31 07:26:01 51°14.859 2°53.665 289 12.8 285 9.4
2009-03-31 07:26:06 51°14.864 2°53.637 288.2 12.7 283 9.5
2009-03-31 07:26:11 51°14.868 2°53.61 286.7 12.7 281 9.6
2009-03-31 07:26:16 51°14.87 2°53.582 283.2 12.8 278 9.6
2009-03-31 07:26:20 51°14.872 2°53.56 281.4 12.7 279 9.6
2009-03-31 07:26:25 51°14.874 2°53.532 279.8 12.8 276 9.5
2009-03-31 07:26:31 51°14.876 2°53.498 278.1 12.7 275 9.6
2009-03-31 07:26:36 51°14.877 2°53.47 277.2 12.7 274 9.7
2009-03-31 07:26:41 51°14.878 2°53.442 275.9 12.8 273 9.8
2009-03-31 07:26:46 51°14.879 2°53.414 275.1 12.8 273 9.8
2009-03-31 07:26:51 51°14.88 2°53.385 274.4 12.8 271 9.9
2009-03-31 07:26:56 51°14.881 2°53.357 273.6 12.8 272 9.9
2009-03-31 07:27:01 51°14.881 2°53.329 273.1 12.8 271 9.9
2009-03-31 07:27:06 51°14.881 2°53.3 272.8 12.8 271 9.8
2009-03-31 07:27:11 51°14.882 2°53.272 272.6 12.8 271 9.8
2009-03-31 07:27:16 51°14.882 2°53.244 272.3 12.8 271 9.8
2009-03-31 07:27:21 51°14.883 2°53.215 272.3 12.8 272 9.7
2009-03-31 07:27:26 51°14.883 2°53.187 272.6 12.8 272 9.7
2009-03-31 07:27:31 51°14.884 2°53.159 272.8 12.8 272 9.7
2009-03-31 07:27:36 51°14.884 2°53.13 273 12.8 272 9.7
2009-03-31 07:27:41 51°14.885 2°53.102 273.1 12.9 272 9.7
2009-03-31 07:27:46 51°14.885 2°53.074 273.1 12.8 272 9.8
2009-03-31 07:27:51 51°14.886 2°53.046 273.2 12.9 272 9.7
2009-03-31 07:27:56 51°14.886 2°53.017 273 12.9 271 9.7
2009-03-31 07:28:01 51°14.887 2°52.989 272.8 12.9 271 9.8
2009-03-31 07:28:06 51°14.888 2°52.96 273 12.9 272 9.7
2009-03-31 07:28:11 51°14.888 2°52.932 273.1 12.9 272 9.8
2009-03-31 07:28:16 51°14.889 2°52.903 273.1 12.9 272 9.7
2009-03-31 07:28:21 51°14.89 2°52.875 273.7 12.9 272 9.7
2009-03-31 07:28:26 51°14.89 2°52.846 273.7 12.9 272 9.7
2009-03-31 07:28:31 51°14.891 2°52.818 273.6 12.9 272 9.6
2009-03-31 07:28:36 51°14.891 2°52.789 273.5 12.9 271 9.6
2009-03-31 07:28:41 51°14.892 2°52.761 273.4 12.8 272 9.5
2009-03-31 07:28:46 51°14.892 2°52.732 273.4 12.9 272 9.5
2009-03-31 07:28:51 51°14.893 2°52.704 273.7 12.9 272 9.5
2009-03-31 07:28:56 51°14.894 2°52.675 274 12.9 272 9.5
2009-03-31 07:29:01 51°14.895 2°52.647 274.1 12.9 272 9.5
2009-03-31 07:29:06 51°14.895 2°52.618 274.1 12.9 272 9.6
2009-03-31 07:29:11 51°14.896 2°52.59 274.3 12.9 273 9.6
2009-03-31 07:29:16 51°14.897 2°52.561 274.4 12.9 273 9.6
2009-03-31 07:29:21 51°14.898 2°52.533 274.4 12.9 272 9.6
2009-03-31 07:29:26 51°14.898 2°52.504 274.4 13 272 9.7
2009-03-31 07:29:31 51°14.899 2°52.476 274.4 12.9 273 9.6
2009-03-31 07:29:36 51°14.9 2°52.447 274.4 12.9 273 9.7
2009-03-31 07:29:41 51°14.901 2°52.419 274.6 13 273 9.7
2009-03-31 07:29:45 51°14.902 2°52.396 274.6 13 273 9.7
2009-03-31 07:29:51 51°14.903 2°52.361 274.6 13 272 9.7
2009-03-31 07:29:56 51°14.904 2°52.333 274.4 13 273 9.7
2009-03-31 07:30:01 51°14.904 2°52.304 274.4 13 272 9.8
2009-03-31 07:30:06 51°14.905 2°52.275 274.6 13 272 9.8
2009-03-31 07:30:11 51°14.906 2°52.247 274.6 13 273 9.9
2009-03-31 07:30:16 51°14.907 2°52.218 274.6 13 272 9.9
2009-03-31 07:30:21 51°14.907 2°52.189 274.4 13 272 9.9
2009-03-31 07:30:26 51°14.908 2°52.16 274.5 13 272 9.9
2009-03-31 07:30:31 51°14.908 2°52.131 274.4 13 271 10
2009-03-31 07:30:36 51°14.909 2°52.103 274.2 13 272 9.9
2009-03-31 07:30:41 51°14.909 2°52.074 273.9 13 271 10
2009-03-31 07:30:46 51°14.909 2°52.046 273 13 270 10
2009-03-31 07:30:51 51°14.909 2°52.017 272.6 13 271 10
2009-03-31 07:30:56 51°14.909 2°51.988 272.8 13 271 10
2009-03-31 07:31:01 51°14.91 2°51.959 273.5 13 272 10
2009-03-31 07:31:06 51°14.91 2°51.931 274.1 13 272 10.1
2009-03-31 07:31:11 51°14.911 2°51.902 274.4 13 272 10.1
2009-03-31 07:31:16 51°14.912 2°51.873 274.7 13 272 10.1
2009-03-31 07:31:21 51°14.913 2°51.845 275 13 273 10.3
2009-03-31 07:31:25 51°14.913 2°51.822 275.1 13 273 10.3
2009-03-31 07:31:31 51°14.914 2°51.787 275.3 13 273 10.3
2009-03-31 07:31:36 51°14.915 2°51.758 275.3 13 272 10.3
2009-03-31 07:31:41 51°14.916 2°51.73 275.1 13 272 10.4
2009-03-31 07:31:46 51°14.916 2°51.701 275.1 13 273 10.4
2009-03-31 07:31:51 51°14.917 2°51.672 275 13 272 10.3
2009-03-31 07:31:56 51°14.917 2°51.644 274.7 13 272 10.4
2009-03-31 07:32:01 51°14.918 2°51.615 275 13 272 10.4
2009-03-31 07:32:06 51°14.919 2°51.587 275.2 13 272 10.5
2009-03-31 07:32:11 51°14.919 2°51.558 275.2 12.9 272 10.5
2009-03-31 07:32:16 51°14.92 2°51.53 275.1 12.9 272 10.6
2009-03-31 07:32:21 51°14.921 2°51.501 275 12.9 272 10.6
2009-03-31 07:32:26 51°14.921 2°51.472 274.9 12.9 272 10.7
2009-03-31 07:32:31 51°14.922 2°51.444 275.1 12.9 273 10.7
2009-03-31 07:32:36 51°14.923 2°51.415 275.7 12.9 272 10.8
2009-03-31 07:32:41 51°14.924 2°51.387 275.5 13 272 10.7
2009-03-31 07:32:46 51°14.924 2°51.358 275.4 12.9 273 10.7
2009-03-31 07:32:51 51°14.925 2°51.33 275.4 12.9 272 10.8
2009-03-31 07:32:56 51°14.926 2°51.301 275.2 12.9 272 10.9
2009-03-31 07:33:01 51°14.926 2°51.273 275 12.9 272 11
2009-03-31 07:33:06 51°14.927 2°51.244 274.9 13 272 11.1
2009-03-31 07:33:11 51°14.927 2°51.216 274.9 13 272 11
2009-03-31 07:33:16 51°14.928 2°51.187 275.1 13 272 11
2009-03-31 07:33:21 51°14.929 2°51.158 275.1 12.9 272 11.1
2009-03-31 07:33:26 51°14.929 2°51.13 274.8 12.9 272 11.3
2009-03-31 07:33:31 51°14.93 2°51.101 274.7 12.9 272 11.2
2009-03-31 07:33:36 51°14.93 2°51.072 274.9 13 272 11.2
2009-03-31 07:33:41 51°14.931 2°51.044 274.9 13 272 11.3
2009-03-31 07:33:46 51°14.932 2°51.015 275 13 272 11.3
2009-03-31 07:33:51 51°14.932 2°50.986 275.2 13 272 11.3
2009-03-31 07:33:56 51°14.933 2°50.958 275.2 13 273 11.4
2009-03-31 07:34:01 51°14.934 2°50.929 275.3 13 272 11.4
2009-03-31 07:34:06 51°14.935 2°50.9 275.4 13 272 11.5
2009-03-31 07:34:11 51°14.935 2°50.871 275.5 13 272 11.5
2009-03-31 07:34:16 51°14.936 2°50.843 274.9 13 272 11.5
2009-03-31 07:34:21 51°14.937 2°50.814 274.7 13 272 11.5
2009-03-31 07:34:26 51°14.937 2°50.785 274.8 13 271 11.5
2009-03-31 07:34:31 51°14.937 2°50.756 274.1 13 269 11.5
2009-03-31 07:34:36 51°14.936 2°50.728 271.1 13 268 11.6
2009-03-31 07:34:41 51°14.935 2°50.699 270.1 13 268 11.6
2009-03-31 07:34:46 51°14.933 2°50.67 268.7 13 265 11.6
2009-03-31 07:34:51 51°14.932 2°50.642 267.9 13 265 11.7
2009-03-31 07:34:56 51°14.93 2°50.613 266.8 13 264 11.6
2009-03-31 07:35:01 51°14.928 2°50.585 266.1 13 264 11.7
2009-03-31 07:35:06 51°14.926 2°50.556 265.5 13 263 11.7
2009-03-31 07:35:11 51°14.924 2°50.528 265 13 263 11.7
2009-03-31 07:35:16 51°14.921 2°50.499 264.4 13 262 11.7
2009-03-31 07:35:21 51°14.919 2°50.47 264.2 13 262 11.7
2009-03-31 07:35:26 51°14.916 2°50.442 264.1 13 262 11.8
2009-03-31 07:35:31 51°14.914 2°50.413 264.1 13.1 263 11.8
2009-03-31 07:35:36 51°14.912 2°50.384 264.3 13 263 11.7
2009-03-31 07:35:41 51°14.91 2°50.355 264.7 13.1 263 11.8
2009-03-31 07:35:46 51°14.907 2°50.327 264.7 13.1 263 11.8
2009-03-31 07:35:51 51°14.905 2°50.298 264.7 13.1 263 11.8
2009-03-31 07:35:56 51°14.903 2°50.269 264.8 13.1 263 11.8
2009-03-31 07:36:01 51°14.901 2°50.241 264.5 13.1 263 11.8
2009-03-31 07:36:06 51°14.899 2°50.212 264.5 13.1 263 11.8
2009-03-31 07:36:11 51°14.897 2°50.183 264.3 13.1 263 11.8
2009-03-31 07:36:16 51°14.894 2°50.154 264.3 13.1 263 11.8
2009-03-31 07:36:21 51°14.892 2°50.125 264.3 13.1 263 11.8
2009-03-31 07:36:26 51°14.89 2°50.097 264.5 13.1 263 11.8
2009-03-31 07:36:31 51°14.888 2°50.068 264.3 13.1 263 11.8
2009-03-31 07:36:36 51°14.885 2°50.039 263.1 13.1 262 11.8
2009-03-31 07:36:41 51°14.883 2°50.011 263.1 13.1 262 11.8
2009-03-31 07:36:46 51°14.88 2°49.982 263.3 13.1 263 11.8
2009-03-31 07:36:51 51°14.878 2°49.953 264 13.1 263 11.8
2009-03-31 07:36:56 51°14.876 2°49.925 264.4 13.1 263 11.9
2009-03-31 07:37:01 51°14.874 2°49.896 264.6 13 264 11.9
2009-03-31 07:37:06 51°14.872 2°49.867 264.9 13.1 263 12
2009-03-31 07:37:11 51°14.87 2°49.838 265 13.1 264 11.9
2009-03-31 07:37:16 51°14.868 2°49.81 265 13.1 263 11.9
2009-03-31 07:37:21 51°14.866 2°49.781 265 13 264 11.9
2009-03-31 07:37:26 51°14.865 2°49.752 265 13.1 264 12
2009-03-31 07:37:31 51°14.862 2°49.724 265 13 264 11.9
2009-03-31 07:37:36 51°14.861 2°49.695 265.2 13 264 11.9
2009-03-31 07:37:41 51°14.859 2°49.666 265.2 13 264 12
2009-03-31 07:37:46 51°14.857 2°49.637 265 13.1 263 11.9
2009-03-31 07:37:51 51°14.855 2°49.609 264.9 13.1 263 11.9
2009-03-31 07:37:56 51°14.853 2°49.58 264.8 13 264 12
2009-03-31 07:38:01 51°14.851 2°49.551 264.8 13.1 263 11.9
2009-03-31 07:38:06 51°14.849 2°49.523 265.1 13 264 11.9
2009-03-31 07:38:11 51°14.847 2°49.494 265.1 13.1 263 12
2009-03-31 07:38:16 51°14.845 2°49.465 264.9 13.1 264 11.9
2009-03-31 07:38:21 51°14.843 2°49.437 264.9 13 264 11.9
2009-03-31 07:38:26 51°14.841 2°49.408 264.9 13.1 264 11.9
2009-03-31 07:38:31 51°14.839 2°49.379 264.9 13 264 12
2009-03-31 07:38:36 51°14.837 2°49.351 265 13 264 11.9
2009-03-31 07:38:41 51°14.835 2°49.322 265 13 264 12
2009-03-31 07:38:46 51°14.833 2°49.293 264.9 13.1 263 12
2009-03-31 07:38:51 51°14.831 2°49.265 264.8 13.1 264 11.9
2009-03-31 07:38:56 51°14.829 2°49.236 265.1 13 264 11.9
2009-03-31 07:39:01 51°14.827 2°49.207 265.1 13 264 11.9
2009-03-31 07:39:06 51°14.825 2°49.179 265.3 13 263 11.9
2009-03-31 07:39:11 51°14.823 2°49.15 264.5 13 261 11.9
2009-03-31 07:39:16 51°14.82 2°49.122 262.5 13 261 11.9
2009-03-31 07:39:21 51°14.817 2°49.094 261.7 13 260 11.9
2009-03-31 07:39:26 51°14.813 2°49.066 260.6 13 259 11.9
2009-03-31 07:39:31 51°14.81 2°49.038 259.9 12.9 259 11.9
2009-03-31 07:39:36 51°14.806 2°49.01 259.2 13 257 11.9
2009-03-31 07:39:41 51°14.802 2°48.982 258.5 13 258 11.9
2009-03-31 07:39:46 51°14.798 2°48.954 258.2 13 257 11.9
2009-03-31 07:39:51 51°14.794 2°48.926 257.7 12.9 257 11.9
2009-03-31 07:39:56 51°14.79 2°48.898 257.7 12.9 257 11.9
2009-03-31 07:40:01 51°14.786 2°48.87 257.7 13 257 11.9
2009-03-31 07:40:06 51°14.782 2°48.842 257.5 13 257 11.9
2009-03-31 07:40:11 51°14.778 2°48.815 257.5 12.9 257 11.8
2009-03-31 07:40:16 51°14.774 2°48.787 257.3 13 257 11.9
2009-03-31 07:40:21 51°14.77 2°48.759 257.3 13 257 11.7
2009-03-31 07:40:26 51°14.766 2°48.731 257.7 13 258 11.7
2009-03-31 07:40:31 51°14.762 2°48.703 258 13 257 11.8
2009-03-31 07:40:36 51°14.758 2°48.675 258.2 12.9 258 11.7
2009-03-31 07:40:41 51°14.754 2°48.647 258 13 257 11.7
2009-03-31 07:40:46 51°14.75 2°48.619 257.7 13 257 11.6
2009-03-31 07:40:51 51°14.746 2°48.591 257.6 13 257 11.6
2009-03-31 07:40:56 51°14.742 2°48.563 257.4 13 257 11.6
2009-03-31 07:41:01 51°14.738 2°48.536 257.7 13 257 11.5
2009-03-31 07:41:06 51°14.734 2°48.508 257.7 12.9 257 11.5
2009-03-31 07:41:11 51°14.73 2°48.48 257.6 12.9 257 11.4
2009-03-31 07:41:16 51°14.726 2°48.452 257.7 13 257 11.4
2009-03-31 07:41:21 51°14.722 2°48.424 258.4 13 258 11.4
2009-03-31 07:41:25 51°14.719 2°48.402 258.2 13 257 11.4
2009-03-31 07:41:31 51°14.714 2°48.368 257.9 13 257 11.3
2009-03-31 07:41:36 51°14.71 2°48.34 257.8 13 257 11.3
2009-03-31 07:41:41 51°14.706 2°48.312 257.6 13 257 11.2
2009-03-31 07:41:46 51°14.702 2°48.285 257.4 13 257 11.1
2009-03-31 07:41:51 51°14.698 2°48.257 257.7 13 258 11.1
2009-03-31 07:41:56 51°14.694 2°48.228 258.3 13 258 11
2009-03-31 07:42:01 51°14.691 2°48.201 258.3 13 258 11
2009-03-31 07:42:06 51°14.686 2°48.173 258.1 13 257 10.9
2009-03-31 07:42:11 51°14.682 2°48.144 257.7 13 258 10.9
2009-03-31 07:42:16 51°14.679 2°48.117 257.8 13 257 10.7
2009-03-31 07:42:21 51°14.675 2°48.089 257.7 13 258 10.7
2009-03-31 07:42:26 51°14.671 2°48.06 257.7 13 257 10.7
2009-03-31 07:42:31 51°14.667 2°48.032 257.7 13 258 10.7
2009-03-31 07:42:36 51°14.663 2°48.004 257.8 13 258 10.5
2009-03-31 07:42:41 51°14.659 2°47.976 258.1 13 258 10.4
2009-03-31 07:42:46 51°14.655 2°47.948 257.9 13 257 10.5
2009-03-31 07:42:51 51°14.651 2°47.92 257.7 13 258 10.3
2009-03-31 07:42:56 51°14.648 2°47.891 257.9 13.1 258 10.4
2009-03-31 07:43:01 51°14.644 2°47.863 258 13 257 10.3
2009-03-31 07:43:06 51°14.64 2°47.835 258.2 13 258 10.4
2009-03-31 07:43:11 51°14.636 2°47.807 258.1 13 258 10.3
2009-03-31 07:43:16 51°14.632 2°47.779 258 13 258 10.4
2009-03-31 07:43:21 51°14.628 2°47.751 258 13 257 10.4
2009-03-31 07:43:26 51°14.624 2°47.723 258 13 258 10.3
2009-03-31 07:43:31 51°14.621 2°47.695 258 13 258 10.3
2009-03-31 07:43:36 51°14.617 2°47.667 258 13 258 10.3
2009-03-31 07:43:41 51°14.613 2°47.639 258 13 258 10.2
2009-03-31 07:43:46 51°14.609 2°47.61 258 13 258 10.2
2009-03-31 07:43:51 51°14.606 2°47.582 258.5 13 258 10.3
2009-03-31 07:43:56 51°14.602 2°47.554 258.5 13 257 10.3
2009-03-31 07:44:01 51°14.598 2°47.526 258 13.1 258 10.3
2009-03-31 07:44:06 51°14.594 2°47.498 258.2 13 257 10.3
2009-03-31 07:44:11 51°14.59 2°47.47 258 13 258 10.4
2009-03-31 07:44:16 51°14.586 2°47.442 257.9 13 258 10.5
2009-03-31 07:44:21 51°14.583 2°47.413 258.3 13 258 10.5
2009-03-31 07:44:26 51°14.579 2°47.385 258.5 13 258 10.6
2009-03-31 07:44:31 51°14.575 2°47.357 258.2 13.1 258 10.6
2009-03-31 07:44:36 51°14.571 2°47.329 258.2 13.1 258 10.7
2009-03-31 07:44:41 51°14.567 2°47.3 258.1 13.1 258 10.8
2009-03-31 07:44:46 51°14.564 2°47.272 258.2 13.1 258 10.8
2009-03-31 07:44:51 51°14.56 2°47.244 258.5 13.1 257 10.9
2009-03-31 07:44:56 51°14.556 2°47.216 258.2 13.1 258 11
2009-03-31 07:45:01 51°14.552 2°47.187 258 13.1 258 11
2009-03-31 07:45:06 51°14.548 2°47.159 258.2 13.1 259 11.1
2009-03-31 07:45:11 51°14.545 2°47.131 258.6 13.1 258 11.2
2009-03-31 07:45:16 51°14.541 2°47.102 258.7 13.1 259 11.2
2009-03-31 07:45:21 51°14.538 2°47.075 258.7 13.1 258 11.3
2009-03-31 07:45:26 51°14.533 2°47.046 258.3 13.1 257 11.4
2009-03-31 07:45:31 51°14.53 2°47.018 258.4 13.1 258 11.5
2009-03-31 07:45:36 51°14.526 2°46.989 258.4 13.1 258 11.5
2009-03-31 07:45:41 51°14.522 2°46.961 258.3 13.1 258 11.6
2009-03-31 07:45:46 51°14.518 2°46.933 258.2 13.1 258 11.6
2009-03-31 07:45:51 51°14.515 2°46.904 258 13.1 258 11.7
2009-03-31 07:45:56 51°14.511 2°46.876 258 13.1 258 11.7
2009-03-31 07:46:01 51°14.507 2°46.848 258.3 13.1 258 11.8
2009-03-31 07:46:06 51°14.503 2°46.82 258 13.1 258 11.8
2009-03-31 07:46:11 51°14.499 2°46.791 257.2 13.1 256 11.9
2009-03-31 07:46:16 51°14.495 2°46.764 256.6 13 256 11.9
2009-03-31 07:46:21 51°14.49 2°46.736 256.1 13.1 256 11.9
2009-03-31 07:46:26 51°14.485 2°46.708 255.4 13 255 11.9
2009-03-31 07:46:31 51°14.481 2°46.68 254.9 13.1 255 11.9
2009-03-31 07:46:36 51°14.476 2°46.652 254.8 13.1 255 12
2009-03-31 07:46:41 51°14.471 2°46.624 254.8 13.1 255 12
2009-03-31 07:46:46 51°14.466 2°46.596 254.6 13.1 255 12
2009-03-31 07:46:51 51°14.462 2°46.569 254.8 13.1 255 12
2009-03-31 07:46:56 51°14.457 2°46.541 255.2 13 255 12
2009-03-31 07:47:01 51°14.452 2°46.513 255 13.1 254 12
2009-03-31 07:47:06 51°14.448 2°46.485 254.8 13 255 12.1
2009-03-31 07:47:11 51°14.443 2°46.457 255 13 254 12
2009-03-31 07:47:16 51°14.438 2°46.43 254.8 13 255 12.1
2009-03-31 07:47:21 51°14.434 2°46.402 254.9 13 255 12
2009-03-31 07:47:26 51°14.429 2°46.374 255.1 13 254 12.1
2009-03-31 07:47:31 51°14.424 2°46.346 254.9 13 255 12.1
2009-03-31 07:47:36 51°14.419 2°46.319 254.9 13 255 12.1
2009-03-31 07:47:41 51°14.414 2°46.291 255.1 13 255 12.1
2009-03-31 07:47:46 51°14.409 2°46.263 255.2 13 254 12.1
2009-03-31 07:47:51 51°14.404 2°46.235 254.9 13 254 12.1
2009-03-31 07:47:56 51°14.4 2°46.208 254.8 13 254 12
2009-03-31 07:48:01 51°14.395 2°46.18 254.8 13 254 12.1
2009-03-31 07:48:05 51°14.39 2°46.158 254 13 251 12
2009-03-31 07:48:11 51°14.383 2°46.126 252.7 13 253 12.1
2009-03-31 07:48:16 51°14.377 2°46.099 252.4 13 251 12.1
2009-03-31 07:48:21 51°14.371 2°46.072 251.3 13 250 12.1
2009-03-31 07:48:26 51°14.365 2°46.045 250.9 13 250 12
2009-03-31 07:48:31 51°14.358 2°46.018 249.9 13 248 12.1
2009-03-31 07:48:36 51°14.351 2°45.992 248.3 12.9 246 12
2009-03-31 07:48:41 51°14.343 2°45.966 246 12.9 245 12
2009-03-31 07:48:46 51°14.335 2°45.94 244.4 12.9 244 12
2009-03-31 07:48:51 51°14.326 2°45.915 242.2 12.8 240 12
2009-03-31 07:48:56 51°14.317 2°45.891 240.3 12.8 241 12
2009-03-31 07:49:01 51°14.308 2°45.866 239 12.8 239 12
2009-03-31 07:49:06 51°14.298 2°45.843 236.7 12.8 236 11.9
2009-03-31 07:49:11 51°14.288 2°45.82 235.3 12.8 236 11.9
2009-03-31 07:49:16 51°14.278 2°45.796 234.5 12.8 235 11.9
2009-03-31 07:49:21 51°14.268 2°45.774 233.5 12.8 234 11.9
2009-03-31 07:49:26 51°14.257 2°45.751 232.7 12.8 233 11.9
2009-03-31 07:49:31 51°14.247 2°45.728 232.1 12.8 233 11.9
2009-03-31 07:49:36 51°14.236 2°45.706 231.4 12.9 232 11.9
2009-03-31 07:49:41 51°14.225 2°45.683 230.9 12.9 232 11.8
2009-03-31 07:49:46 51°14.214 2°45.661 230.5 12.9 232 11.8
2009-03-31 07:49:51 51°14.203 2°45.638 230.5 12.9 233 11.8
2009-03-31 07:49:56 51°14.192 2°45.615 231.2 12.9 233 11.8
2009-03-31 07:50:01 51°14.181 2°45.593 230.9 12.8 232 11.8
2009-03-31 07:50:06 51°14.17 2°45.571 230.1 12.8 232 11.7
2009-03-31 07:50:11 51°14.159 2°45.549 229.4 12.8 230 11.7
2009-03-31 07:50:16 51°14.147 2°45.527 228.7 12.8 231 11.7
2009-03-31 07:50:21 51°14.136 2°45.506 228.6 12.8 230 11.6
2009-03-31 07:50:26 51°14.125 2°45.484 228.7 12.8 231 11.6
2009-03-31 07:50:31 51°14.114 2°45.462 229.2 12.8 231 11.6
2009-03-31 07:50:36 51°14.103 2°45.44 229.4 12.8 231 11.6
2009-03-31 07:50:41 51°14.092 2°45.418 229.5 12.8 232 11.6
2009-03-31 07:50:46 51°14.081 2°45.395 230.2 12.9 232 11.5
2009-03-31 07:50:51 51°14.07 2°45.372 230.9 12.9 233 11.5
2009-03-31 07:50:56 51°14.059 2°45.35 231.6 12.8 233 11.5
2009-03-31 07:51:01 51°14.049 2°45.327 231.9 12.8 234 11.5
2009-03-31 07:51:06 51°14.038 2°45.304 232.3 12.9 233 11.4
2009-03-31 07:51:11 51°14.028 2°45.281 232.4 12.9 234 11.4
2009-03-31 07:51:16 51°14.017 2°45.258 232.9 12.8 234 11.4
2009-03-31 07:51:21 51°14.007 2°45.235 233.1 12.8 235 11.3
2009-03-31 07:51:26 51°13.996 2°45.212 233.4 12.9 234 11.3
2009-03-31 07:51:31 51°13.986 2°45.189 233.4 12.9 235 11.3
2009-03-31 07:51:36 51°13.976 2°45.165 233.4 12.9 234 11.2
2009-03-31 07:51:41 51°13.965 2°45.142 233.1 12.9 234 11.2
2009-03-31 07:51:46 51°13.954 2°45.119 232.7 12.9 234 11.2
2009-03-31 07:51:51 51°13.944 2°45.096 232.8 12.9 234 11.2
2009-03-31 07:51:56 51°13.934 2°45.073 233.4 12.9 235 11.2
2009-03-31 07:52:01 51°13.923 2°45.05 233.5 12.9 234 11.1
2009-03-31 07:52:06 51°13.913 2°45.027 233.1 12.9 234 11
2009-03-31 07:52:11 51°13.902 2°45.004 232.8 12.9 234 11
2009-03-31 07:52:16 51°13.892 2°44.981 233.1 12.9 235 11
2009-03-31 07:52:21 51°13.882 2°44.957 233.7 12.9 235 10.9
2009-03-31 07:52:26 51°13.872 2°44.934 234.3 12.9 236 10.9
2009-03-31 07:52:31 51°13.862 2°44.91 234.8 12.9 236 10.9
2009-03-31 07:52:36 51°13.852 2°44.887 234.8 12.9 236 10.8
2009-03-31 07:52:41 51°13.842 2°44.863 235.1 12.9 236 10.7
2009-03-31 07:52:46 51°13.832 2°44.839 235.7 12.9 237 10.8
2009-03-31 07:52:51 51°13.822 2°44.816 235.9 12.9 236 10.7
2009-03-31 07:52:56 51°13.812 2°44.792 235.2 12.8 236 10.7
2009-03-31 07:53:01 51°13.802 2°44.769 234.6 12.8 235 10.6
2009-03-31 07:53:06 51°13.793 2°44.745 234.9 12.9 237 10.6
2009-03-31 07:53:11 51°13.783 2°44.721 235.5 12.9 237 10.6
2009-03-31 07:53:16 51°13.773 2°44.697 236.3 12.9 237 10.5
2009-03-31 07:53:21 51°13.764 2°44.673 236.2 12.8 237 10.5
2009-03-31 07:53:26 51°13.754 2°44.65 236 12.8 238 10.5
2009-03-31 07:53:31 51°13.745 2°44.625 237.4 12.9 240 10.4
2009-03-31 07:53:36 51°13.736 2°44.601 238.3 12.8 239 10.3
2009-03-31 07:53:41 51°13.727 2°44.576 238.7 12.9 240 10.3
2009-03-31 07:53:46 51°13.718 2°44.552 239.3 12.9 241 10.3
2009-03-31 07:53:51 51°13.709 2°44.527 239.7 12.9 242 10.2
2009-03-31 07:53:56 51°13.702 2°44.501 241.8 12.8 244 10.1
2009-03-31 07:54:01 51°13.693 2°44.476 242.2 12.9 242 10
2009-03-31 07:54:06 51°13.685 2°44.451 242.5 12.9 244 10.1
2009-03-31 07:54:11 51°13.677 2°44.426 243.2 12.8 243 10
2009-03-31 07:54:16 51°13.67 2°44.4 243 12.8 243 9.9
2009-03-31 07:54:21 51°13.662 2°44.375 242.8 12.9 243 9.8
2009-03-31 07:54:26 51°13.654 2°44.349 243.2 12.8 245 9.8
2009-03-31 07:54:31 51°13.646 2°44.324 243.6 12.8 244 9.7
2009-03-31 07:54:36 51°13.638 2°44.298 243.4 12.8 244 9.6
2009-03-31 07:54:41 51°13.631 2°44.273 243.5 12.8 244 9.5
2009-03-31 07:54:46 51°13.623 2°44.248 243.6 12.8 245 9.4
2009-03-31 07:54:51 51°13.615 2°44.222 243.7 12.7 244 9.2
2009-03-31 07:54:56 51°13.608 2°44.197 243.6 12.7 244 9.2
2009-03-31 07:55:01 51°13.6 2°44.172 243.6 12.7 245 9.2
2009-03-31 07:55:06 51°13.593 2°44.146 244 12.7 245 9
2009-03-31 07:55:11 51°13.585 2°44.121 244 12.7 245 8.9
2009-03-31 07:55:16 51°13.578 2°44.096 244 12.7 245 8.8
2009-03-31 07:55:21 51°13.57 2°44.07 244.1 12.7 245 8.8
2009-03-31 07:55:26 51°13.563 2°44.045 244.1 12.7 245 8.7
2009-03-31 07:55:31 51°13.555 2°44.019 244.3 12.7 246 8.6
2009-03-31 07:55:36 51°13.548 2°43.994 244.8 12.7 245 8.4
2009-03-31 07:55:41 51°13.541 2°43.968 244.9 12.7 246 8.3
2009-03-31 07:55:46 51°13.533 2°43.943 245 12.7 245 8.4
2009-03-31 07:55:51 51°13.526 2°43.917 244.7 12.7 246 8.2
2009-03-31 07:55:56 51°13.519 2°43.892 244.8 12.7 245 8.2
2009-03-31 07:56:01 51°13.512 2°43.866 245 12.7 246 8.1
2009-03-31 07:56:06 51°13.505 2°43.841 244.9 12.7 246 8.1
2009-03-31 07:56:11 51°13.498 2°43.815 244.8 12.7 246 8
2009-03-31 07:56:16 51°13.49 2°43.79 244.8 12.6 245 7.9
2009-03-31 07:56:21 51°13.483 2°43.764 244.7 12.6 246 8
2009-03-31 07:56:26 51°13.476 2°43.739 244.6 12.6 246 8
2009-03-31 07:56:31 51°13.469 2°43.713 244.9 12.6 246 7.9
2009-03-31 07:56:36 51°13.462 2°43.688 245.2 12.7 246 7.9
2009-03-31 07:56:41 51°13.454 2°43.662 245.1 12.6 246 7.9
2009-03-31 07:56:45 51°13.449 2°43.642 244.8 12.7 246 8
2009-03-31 07:56:51 51°13.44 2°43.611 244.8 12.7 246 8
2009-03-31 07:56:56 51°13.433 2°43.586 245 12.7 246 8
2009-03-31 07:57:01 51°13.425 2°43.56 244.9 12.7 246 8.1
2009-03-31 07:57:06 51°13.418 2°43.535 244.9 12.7 245 8.1
2009-03-31 07:57:11 51°13.411 2°43.509 244.4 12.7 245 8.1
2009-03-31 07:57:16 51°13.403 2°43.484 244.4 12.7 246 8.2
2009-03-31 07:57:21 51°13.396 2°43.458 244.7 12.7 246 8.3
2009-03-31 07:57:25 51°13.39 2°43.438 244.7 12.7 246 8.3
2009-03-31 07:57:31 51°13.382 2°43.407 245 12.7 246 8.3
2009-03-31 07:57:36 51°13.374 2°43.382 244.7 12.7 245 8.3
2009-03-31 07:57:41 51°13.367 2°43.356 244.9 12.7 246 8.4
2009-03-31 07:57:46 51°13.36 2°43.331 244.8 12.7 245 8.4
2009-03-31 07:57:51 51°13.353 2°43.305 244.6 12.7 246 8.5
2009-03-31 07:57:56 51°13.345 2°43.28 244.6 12.7 245 8.5
2009-03-31 07:58:01 51°13.338 2°43.254 244.6 12.7 246 8.5
2009-03-31 07:58:06 51°13.33 2°43.229 244.6 12.7 245 8.6
2009-03-31 07:58:11 51°13.323 2°43.203 244.7 12.7 245 8.7
2009-03-31 07:58:16 51°13.316 2°43.178 244.7 12.7 246 8.7
2009-03-31 07:58:21 51°13.309 2°43.152 245.1 12.7 246 8.7
2009-03-31 07:58:26 51°13.302 2°43.127 245.2 12.7 246 8.7
2009-03-31 07:58:31 51°13.294 2°43.101 245.3 12.7 246 8.7
2009-03-31 07:58:36 51°13.287 2°43.076 245.3 12.7 246 8.8
2009-03-31 07:58:41 51°13.28 2°43.05 245.2 12.7 246 8.8
2009-03-31 07:58:46 51°13.273 2°43.025 245.2 12.7 246 8.9
2009-03-31 07:58:51 51°13.265 2°42.999 245.1 12.6 245 8.9
2009-03-31 07:58:56 51°13.258 2°42.974 245 12.7 245 8.9
2009-03-31 07:59:01 51°13.25 2°42.949 244 12.7 243 9
2009-03-31 07:59:06 51°13.242 2°42.924 242.9 12.7 244 9
2009-03-31 07:59:11 51°13.234 2°42.899 242.6 12.7 243 9
2009-03-31 07:59:16 51°13.226 2°42.874 242.5 12.7 243 9.1
2009-03-31 07:59:21 51°13.218 2°42.849 242.5 12.7 243 9.1
2009-03-31 07:59:26 51°13.21 2°42.824 242.5 12.7 243 9.1
2009-03-31 07:59:31 51°13.202 2°42.799 242.5 12.7 243 9.1
2009-03-31 07:59:36 51°13.194 2°42.774 242.5 12.7 243 9.2
2009-03-31 07:59:41 51°13.186 2°42.749 242.5 12.7 243 9.2
2009-03-31 07:59:46 51°13.178 2°42.724 242.3 12.7 243 9.2
2009-03-31 07:59:51 51°13.17 2°42.699 241.8 12.7 240 9.2
2009-03-31 07:59:56 51°13.161 2°42.675 239.9 12.7 240 9.3
2009-03-31 08:00:01 51°13.152 2°42.651 239.5 12.7 240 9.2
2009-03-31 08:00:06 51°13.143 2°42.627 238.5 12.7 238 9.3
2009-03-31 08:00:11 51°13.133 2°42.603 237.7 12.7 239 9.3
2009-03-31 08:00:16 51°13.124 2°42.58 237.7 12.7 238 9.4
2009-03-31 08:00:21 51°13.115 2°42.556 237 12.7 237 9.3
2009-03-31 08:00:26 51°13.105 2°42.533 236.7 12.7 238 9.4
2009-03-31 08:00:31 51°13.096 2°42.509 236.5 12.7 237 9.4
2009-03-31 08:00:36 51°13.086 2°42.486 236.2 12.7 237 9.4
2009-03-31 08:00:41 51°13.076 2°42.462 235.8 12.7 237 9.4
2009-03-31 08:00:45 51°13.069 2°42.444 235.7 12.6 237 9.4
2009-03-31 08:00:51 51°13.057 2°42.415 235.9 12.7 237 9.4
2009-03-31 08:00:56 51°13.047 2°42.392 236.1 12.7 236 9.4
2009-03-31 08:01:01 51°13.038 2°42.369 236 12.7 237 9.4
2009-03-31 08:01:06 51°13.028 2°42.345 235.8 12.7 237 9.4
2009-03-31 08:01:11 51°13.018 2°42.322 235.8 12.7 236 9.5
2009-03-31 08:01:16 51°13.009 2°42.299 235.6 12.7 236 9.5
2009-03-31 08:01:21 51°12.999 2°42.275 235.4 12.7 236 9.5
2009-03-31 08:01:25 51°12.991 2°42.257 235.3 12.7 236 9.6
2009-03-31 08:01:31 51°12.979 2°42.229 235.2 12.7 236 9.5
2009-03-31 08:01:36 51°12.97 2°42.205 235.3 12.7 236 9.5
2009-03-31 08:01:41 51°12.96 2°42.182 235.6 12.7 237 9.5
2009-03-31 08:01:46 51°12.95 2°42.159 235.8 12.7 237 9.5
2009-03-31 08:01:51 51°12.941 2°42.135 236 12.6 236 9.6
2009-03-31 08:01:56 51°12.931 2°42.112 235.4 12.7 236 9.5
2009-03-31 08:02:01 51°12.921 2°42.089 234.7 12.7 236 9.5
2009-03-31 08:02:06 51°12.911 2°42.066 234.9 12.6 236 9.6
2009-03-31 08:02:11 51°12.901 2°42.043 235.1 12.7 236 9.6
2009-03-31 08:02:16 51°12.892 2°42.019 235.5 12.7 237 9.5
2009-03-31 08:02:21 51°12.882 2°41.996 235.7 12.7 236 9.5
2009-03-31 08:02:26 51°12.872 2°41.972 235.3 12.7 237 9.5
2009-03-31 08:02:31 51°12.862 2°41.949 235.3 12.6 236 9.5
2009-03-31 08:02:36 51°12.853 2°41.926 235.9 12.7 238 9.5
2009-03-31 08:02:41 51°12.844 2°41.902 236.2 12.7 237 9.5
2009-03-31 08:02:46 51°12.834 2°41.879 236.4 12.7 238 9.6
2009-03-31 08:02:51 51°12.825 2°41.854 237.7 12.7 240 9.6
2009-03-31 08:02:56 51°12.816 2°41.83 238.4 12.7 239 9.6
2009-03-31 08:03:01 51°12.808 2°41.806 239.4 12.7 241 9.7
2009-03-31 08:03:06 51°12.799 2°41.782 239.7 12.6 240 9.5
2009-03-31 08:03:11 51°12.79 2°41.757 239.7 12.7 241 9.6
2009-03-31 08:03:16 51°12.782 2°41.733 239.7 12.6 239 9.7
2009-03-31 08:03:21 51°12.772 2°41.709 239 12.6 239 9.7
2009-03-31 08:03:26 51°12.764 2°41.685 238.6 12.6 240 9.6
2009-03-31 08:03:31 51°12.755 2°41.661 238.2 12.6 239 9.7
2009-03-31 08:03:36 51°12.746 2°41.638 238 12.6 239 9.7
2009-03-31 08:03:41 51°12.736 2°41.614 237.7 12.6 239 9.7
2009-03-31 08:03:46 51°12.728 2°41.59 238.4 12.6 240 9.7
2009-03-31 08:03:51 51°12.719 2°41.565 238.9 12.7 240 9.6
2009-03-31 08:03:56 51°12.71 2°41.541 239 12.6 240 9.6
2009-03-31 08:04:01 51°12.702 2°41.517 239.5 12.6 241 9.7
2009-03-31 08:04:06 51°12.693 2°41.493 240 12.7 241 9.6
2009-03-31 08:04:11 51°12.685 2°41.468 240.9 12.7 242 9.6
2009-03-31 08:04:16 51°12.677 2°41.443 241.1 12.7 242 9.7
2009-03-31 08:04:21 51°12.668 2°41.418 241.1 12.7 242 9.7
2009-03-31 08:04:26 51°12.66 2°41.393 241.7 12.7 242 9.7
2009-03-31 08:04:31 51°12.652 2°41.369 241.1 12.7 241 9.7
2009-03-31 08:04:36 51°12.643 2°41.345 240.2 12.7 241 9.7
2009-03-31 08:04:41 51°12.635 2°41.32 240.2 12.7 241 9.8
2009-03-31 08:04:46 51°12.626 2°41.296 239.6 12.7 239 9.7
2009-03-31 08:04:51 51°12.617 2°41.272 239 12.7 241 9.7
2009-03-31 08:04:56 51°12.609 2°41.247 239.6 12.7 241 9.8
2009-03-31 08:05:01 51°12.6 2°41.222 240.3 12.7 242 9.8
2009-03-31 08:05:06 51°12.592 2°41.198 241.1 12.7 242 9.8
2009-03-31 08:05:11 51°12.583 2°41.173 241.2 12.7 242 9.8
2009-03-31 08:05:16 51°12.575 2°41.148 241.2 12.7 242 9.8
2009-03-31 08:05:21 51°12.567 2°41.123 241.2 12.7 242 9.7
2009-03-31 08:05:26 51°12.558 2°41.099 241.2 12.7 242 9.7
2009-03-31 08:05:31 51°12.55 2°41.074 241.2 12.7 242 9.7
2009-03-31 08:05:36 51°12.542 2°41.049 241.1 12.7 242 9.8
2009-03-31 08:05:41 51°12.533 2°41.024 241 12.8 242 9.8
2009-03-31 08:05:46 51°12.525 2°40.999 241.1 12.8 242 9.9
2009-03-31 08:05:51 51°12.517 2°40.975 241.4 12.7 242 9.8
2009-03-31 08:05:56 51°12.508 2°40.95 241.5 12.7 241 9.9
2009-03-31 08:06:01 51°12.5 2°40.925 241.1 12.7 241 9.9
2009-03-31 08:06:06 51°12.491 2°40.901 239.7 12.7 240 10
2009-03-31 08:06:11 51°12.482 2°40.877 239.1 12.7 240 9.9
2009-03-31 08:06:16 51°12.473 2°40.853 238.5 12.7 238 9.9
2009-03-31 08:06:21 51°12.464 2°40.829 237.6 12.7 238 9.8
2009-03-31 08:06:26 51°12.454 2°40.805 237.3 12.7 238 9.8
2009-03-31 08:06:31 51°12.445 2°40.782 236.8 12.7 238 9.7
2009-03-31 08:06:36 51°12.435 2°40.758 236.7 12.7 237 9.7
2009-03-31 08:06:41 51°12.426 2°40.735 236.3 12.7 237 9.6
2009-03-31 08:06:46 51°12.416 2°40.711 236.3 12.7 238 9.7
2009-03-31 08:06:51 51°12.407 2°40.687 236.7 12.7 238 9.7
2009-03-31 08:06:56 51°12.398 2°40.664 236.9 12.7 238 9.7
2009-03-31 08:07:01 51°12.388 2°40.64 237 12.7 238 9.7
2009-03-31 08:07:06 51°12.379 2°40.616 236.7 12.7 237 9.7
2009-03-31 08:07:11 51°12.369 2°40.593 236.5 12.7 238 9.7
2009-03-31 08:07:16 51°12.36 2°40.569 236.6 12.7 237 9.7
2009-03-31 08:07:21 51°12.35 2°40.545 236.3 12.7 236 9.6
2009-03-31 08:07:26 51°12.341 2°40.522 236 12.7 237 9.5
2009-03-31 08:07:31 51°12.331 2°40.498 236 12.7 237 9.6
2009-03-31 08:07:36 51°12.322 2°40.474 236.2 12.7 237 9.6
2009-03-31 08:07:41 51°12.312 2°40.451 236.5 12.7 238 9.7
2009-03-31 08:07:46 51°12.303 2°40.427 236.7 12.7 238 9.6
2009-03-31 08:07:51 51°12.293 2°40.403 236.7 12.7 237 9.6
2009-03-31 08:07:56 51°12.283 2°40.379 236.2 12.7 237 9.6
2009-03-31 08:08:01 51°12.274 2°40.355 236.5 12.7 238 9.5
2009-03-31 08:08:06 51°12.264 2°40.332 236.6 12.7 237 9.5
2009-03-31 08:08:11 51°12.255 2°40.308 236.2 12.7 238 9.6
2009-03-31 08:08:16 51°12.246 2°40.284 236.3 12.7 237 9.6
2009-03-31 08:08:21 51°12.236 2°40.26 236.4 12.7 237 9.6
2009-03-31 08:08:26 51°12.227 2°40.237 236.4 12.7 238 9.6
2009-03-31 08:08:31 51°12.217 2°40.213 236.4 12.7 237 9.6
2009-03-31 08:08:36 51°12.207 2°40.19 236 12.7 237 9.3
2009-03-31 08:08:41 51°12.198 2°40.166 236 12.7 237 8.8
2009-03-31 08:08:46 51°12.188 2°40.143 236 12.6 237 9.2
2009-03-31 08:08:51 51°12.179 2°40.119 236.3 12.6 238 9.3
2009-03-31 08:08:56 51°12.17 2°40.096 236.6 12.6 238 9.4
2009-03-31 08:09:01 51°12.16 2°40.072 236.8 12.7 238 9.2
2009-03-31 08:09:06 51°12.151 2°40.048 236.7 12.7 238 9.3
2009-03-31 08:09:11 51°12.141 2°40.025 236.3 12.7 237 9.5
2009-03-31 08:09:16 51°12.132 2°40.002 235.7 12.6 237 9.3
2009-03-31 08:09:21 51°12.122 2°39.978 235.7 12.7 237 9
2009-03-31 08:09:26 51°12.113 2°39.955 235.9 12.6 237 9
2009-03-31 08:09:31 51°12.103 2°39.932 235.9 12.6 237 9.3
2009-03-31 08:09:36 51°12.093 2°39.908 236 12.6 237 9.2
2009-03-31 08:09:41 51°12.084 2°39.885 236 12.7 237 9.1
2009-03-31 08:09:46 51°12.074 2°39.861 235.8 12.7 237 8.8
2009-03-31 08:09:51 51°12.065 2°39.838 235.8 12.6 237 9.1
2009-03-31 08:09:56 51°12.055 2°39.814 236.1 12.6 238 9
2009-03-31 08:10:01 51°12.046 2°39.791 236.4 12.7 237 9.2
2009-03-31 08:10:06 51°12.036 2°39.768 236.6 12.7 238 9.1
2009-03-31 08:10:11 51°12.027 2°39.744 236.6 12.6 237 9
2009-03-31 08:10:16 51°12.018 2°39.721 236.6 12.6 237 9
2009-03-31 08:10:21 51°12.008 2°39.698 236.5 12.6 237 9
2009-03-31 08:10:26 51°11.998 2°39.674 236.2 12.7 237 9
2009-03-31 08:10:31 51°11.989 2°39.65 236.2 12.6 237 9
2009-03-31 08:10:36 51°11.98 2°39.627 236.1 12.6 237 8.9
2009-03-31 08:10:41 51°11.97 2°39.604 235.8 12.6 236 9.1
2009-03-31 08:10:46 51°11.961 2°39.58 235.9 12.6 238 8.9
2009-03-31 08:10:51 51°11.951 2°39.557 236.4 12.6 237 8.8
2009-03-31 08:10:56 51°11.942 2°39.533 236.5 12.6 237 8.9
2009-03-31 08:11:01 51°11.932 2°39.51 236.3 12.7 237 8.9
2009-03-31 08:11:06 51°11.923 2°39.486 236.2 12.6 238 8.9
2009-03-31 08:11:11 51°11.914 2°39.463 236.6 12.6 237 8.8
2009-03-31 08:11:16 51°11.904 2°39.439 236.2 12.6 237 8.9
2009-03-31 08:11:21 51°11.895 2°39.416 236.3 12.6 238 8.6
2009-03-31 08:11:26 51°11.885 2°39.393 236.6 12.6 237 8.8
2009-03-31 08:11:31 51°11.876 2°39.369 236.6 12.6 237 8.8
2009-03-31 08:11:36 51°11.867 2°39.345 236.4 12.6 238 8.7
2009-03-31 08:11:41 51°11.857 2°39.322 236.5 12.6 237 8.7
2009-03-31 08:11:46 51°11.847 2°39.299 236.1 12.6 237 8.8
2009-03-31 08:11:51 51°11.838 2°39.276 235.9 12.6 237 8.5
2009-03-31 08:11:56 51°11.829 2°39.252 235.8 12.6 237 8.5
2009-03-31 08:12:01 51°11.819 2°39.229 236.1 12.6 238 8.4
2009-03-31 08:12:06 51°11.81 2°39.206 236.3 12.5 237 8.6
2009-03-31 08:12:11 51°11.8 2°39.183 236.3 12.5 237 8.5
2009-03-31 08:12:16 51°11.791 2°39.159 236.1 12.6 237 8.5
2009-03-31 08:12:21 51°11.781 2°39.136 236 12.6 237 8.4
2009-03-31 08:12:26 51°11.772 2°39.113 236 12.6 237 8.4
2009-03-31 08:12:31 51°11.762 2°39.089 236 12.6 237 8.4
2009-03-31 08:12:36 51°11.753 2°39.066 235.9 12.6 237 8.5
2009-03-31 08:12:41 51°11.743 2°39.042 236 12.6 238 8.4
2009-03-31 08:12:46 51°11.734 2°39.019 236.6 12.6 237 8.6
2009-03-31 08:12:51 51°11.724 2°38.996 236.5 12.6 237 8.5
2009-03-31 08:12:56 51°11.715 2°38.973 236.2 12.6 237 8.5
2009-03-31 08:13:01 51°11.705 2°38.949 236.1 12.6 237 8.5
2009-03-31 08:13:06 51°11.695 2°38.926 236 12.6 237 8.5
2009-03-31 08:13:11 51°11.686 2°38.903 235.9 12.6 237 8.4
2009-03-31 08:13:16 51°11.676 2°38.879 236.1 12.6 237 8.6
2009-03-31 08:13:21 51°11.667 2°38.855 236.4 12.6 237 8.5
2009-03-31 08:13:26 51°11.658 2°38.832 236.6 12.6 237 8.8
2009-03-31 08:13:31 51°11.648 2°38.808 236.5 12.7 238 8.7
2009-03-31 08:13:36 51°11.639 2°38.784 236.8 12.7 237 8.6
2009-03-31 08:13:41 51°11.629 2°38.76 236.8 12.6 238 8.7
2009-03-31 08:13:46 51°11.62 2°38.737 236.8 12.7 237 8.6
2009-03-31 08:13:51 51°11.61 2°38.714 236.6 12.7 237 8.7
2009-03-31 08:13:56 51°11.601 2°38.69 236.3 12.7 237 8.8
2009-03-31 08:14:01 51°11.591 2°38.666 236.3 12.7 237 8.6
2009-03-31 08:14:06 51°11.582 2°38.643 236.3 12.6 237 8.8
2009-03-31 08:14:11 51°11.573 2°38.619 236.4 12.6 237 8.7
2009-03-31 08:14:16 51°11.563 2°38.596 236.3 12.6 237 8.6
2009-03-31 08:14:21 51°11.553 2°38.572 236.2 12.6 237 8.7
2009-03-31 08:14:26 51°11.544 2°38.549 236.5 12.7 238 8.7
2009-03-31 08:14:31 51°11.535 2°38.525 236.7 12.6 237 8.6
2009-03-31 08:14:36 51°11.525 2°38.502 236.6 12.6 237 8.5
2009-03-31 08:14:41 51°11.516 2°38.479 236.5 12.6 237 8.7
2009-03-31 08:14:46 51°11.506 2°38.456 236.5 12.6 237 8.5
2009-03-31 08:14:51 51°11.496 2°38.433 236.1 12.6 236 8.7
2009-03-31 08:14:56 51°11.487 2°38.409 235.2 12.6 236 8.7
2009-03-31 08:15:01 51°11.477 2°38.386 235.2 12.6 237 8.7
2009-03-31 08:15:06 51°11.467 2°38.363 235.8 12.6 237 8.5
2009-03-31 08:15:11 51°11.458 2°38.34 236.2 12.6 237 8.5
2009-03-31 08:15:16 51°11.448 2°38.316 236.6 12.6 238 8.6
2009-03-31 08:15:21 51°11.439 2°38.292 236.7 12.6 237 8.5
2009-03-31 08:15:26 51°11.43 2°38.269 236.7 12.6 237 8.6
2009-03-31 08:15:31 51°11.42 2°38.246 236.6 12.7 237 8.8
2009-03-31 08:15:36 51°11.411 2°38.222 236.5 12.6 237 8.5
2009-03-31 08:15:41 51°11.401 2°38.199 236.3 12.7 237 8.6
2009-03-31 08:15:46 51°11.391 2°38.175 236.2 12.6 237 8.9
2009-03-31 08:15:51 51°11.382 2°38.152 236.2 12.7 237 8.6
2009-03-31 08:15:56 51°11.373 2°38.128 236.4 12.6 238 8.9
2009-03-31 08:16:01 51°11.363 2°38.105 236.6 12.6 237 8.6
2009-03-31 08:16:06 51°11.354 2°38.082 236.2 12.7 237 9.1
2009-03-31 08:16:11 51°11.344 2°38.058 236.5 12.7 237 8.8
2009-03-31 08:16:16 51°11.335 2°38.035 236.7 12.7 238 9.2
2009-03-31 08:16:21 51°11.325 2°38.011 236.7 12.7 237 8.9
2009-03-31 08:16:26 51°11.316 2°37.988 236.5 12.7 237 9
2009-03-31 08:16:31 51°11.306 2°37.964 236.2 12.7 237 9.2
2009-03-31 08:16:36 51°11.297 2°37.941 236.3 12.7 238 9.3
2009-03-31 08:16:41 51°11.287 2°37.917 236.6 12.7 237 9
2009-03-31 08:16:46 51°11.278 2°37.893 236.8 12.7 238 9.4
2009-03-31 08:16:51 51°11.268 2°37.87 237.2 12.7 238 9.2
2009-03-31 08:16:56 51°11.259 2°37.847 236.8 12.6 237 9.5
2009-03-31 08:17:01 51°11.249 2°37.823 236 12.6 236 9.5
2009-03-31 08:17:06 51°11.239 2°37.8 235.2 12.6 236 9.7
2009-03-31 08:17:11 51°11.23 2°37.777 235.1 12.6 236 9.6
2009-03-31 08:17:16 51°11.22 2°37.754 235.2 12.7 237 9.8
2009-03-31 08:17:21 51°11.21 2°37.73 235.9 12.7 238 9.4
2009-03-31 08:17:26 51°11.201 2°37.707 236.5 12.7 237 9.4
2009-03-31 08:17:31 51°11.191 2°37.683 236.4 12.6 237 9.5
2009-03-31 08:17:36 51°11.182 2°37.66 236.4 12.6 238 9.9
2009-03-31 08:17:41 51°11.172 2°37.636 236.7 12.7 238 9.8
2009-03-31 08:17:45 51°11.165 2°37.617 236.8 12.7 237 9.9
2009-03-31 08:17:51 51°11.154 2°37.589 236.7 12.7 238 10
2009-03-31 08:17:56 51°11.144 2°37.566 236.6 12.7 237 9.6
2009-03-31 08:18:01 51°11.135 2°37.542 236.4 12.7 237 9.6
2009-03-31 08:18:06 51°11.125 2°37.518 236.3 12.7 237 10
2009-03-31 08:18:11 51°11.115 2°37.495 236.3 12.7 238 10
2009-03-31 08:18:16 51°11.106 2°37.471 236.6 12.7 238 9.8
2009-03-31 08:18:21 51°11.097 2°37.447 236.7 12.8 238 9.8
2009-03-31 08:18:25 51°11.089 2°37.428 236.7 12.7 237 10
2009-03-31 08:18:31 51°11.077 2°37.4 236.7 12.7 237 9.9
2009-03-31 08:18:36 51°11.068 2°37.376 236.4 12.7 238 9.9
2009-03-31 08:18:41 51°11.059 2°37.352 236.7 12.7 238 9.7
2009-03-31 08:18:46 51°11.049 2°37.328 237 12.7 238 9.8
2009-03-31 08:18:51 51°11.04 2°37.305 236.9 12.7 237 10.1
2009-03-31 08:18:56 51°11.03 2°37.281 236.5 12.7 237 10.1
2009-03-31 08:19:01 51°11.021 2°37.257 236.2 12.7 238 9.9
2009-03-31 08:19:06 51°11.011 2°37.234 236.5 12.7 237 9.8
2009-03-31 08:19:11 51°11.002 2°37.21 236.5 12.7 237 9.8
2009-03-31 08:19:16 51°10.992 2°37.186 236.2 12.8 237 9.9
2009-03-31 08:19:21 51°10.983 2°37.163 236 12.7 237 10.1
2009-03-31 08:19:26 51°10.973 2°37.139 235.9 12.7 237 10.2
2009-03-31 08:19:31 51°10.964 2°37.115 236.4 12.7 238 9.8
2009-03-31 08:19:36 51°10.954 2°37.092 236.7 12.7 237 9.7
2009-03-31 08:19:41 51°10.944 2°37.068 236.7 12.7 237 9.8
2009-03-31 08:19:46 51°10.935 2°37.044 236.6 12.8 238 10
2009-03-31 08:19:51 51°10.926 2°37.021 236.6 12.8 237 9.8
2009-03-31 08:19:56 51°10.916 2°36.997 236.1 12.7 237 10
2009-03-31 08:20:01 51°10.907 2°36.973 236.5 12.7 238 10
2009-03-31 08:20:06 51°10.897 2°36.95 236.7 12.8 237 9.7
2009-03-31 08:20:11 51°10.887 2°36.926 236.3 12.7 238 9.8
2009-03-31 08:20:16 51°10.878 2°36.903 236.2 12.7 237 9.7
2009-03-31 08:20:21 51°10.868 2°36.879 236.3 12.7 238 9.8
2009-03-31 08:20:26 51°10.858 2°36.857 234.5 12.7 233 9.5
2009-03-31 08:20:31 51°10.848 2°36.834 233.1 12.6 235 9.7
2009-03-31 08:20:36 51°10.837 2°36.812 232.5 12.7 232 9.6
2009-03-31 08:20:41 51°10.826 2°36.79 231.2 12.7 232 9.6
2009-03-31 08:20:46 51°10.815 2°36.768 230.9 12.7 231 9.5
2009-03-31 08:20:51 51°10.804 2°36.746 229.9 12.6 231 9.3
2009-03-31 08:20:56 51°10.793 2°36.725 229.5 12.7 231 9.3
2009-03-31 08:21:01 51°10.782 2°36.703 229.4 12.7 230 9.6
2009-03-31 08:21:06 51°10.771 2°36.681 228.8 12.7 230 9.3
2009-03-31 08:21:11 51°10.759 2°36.66 228.7 12.6 229 9.4
2009-03-31 08:21:16 51°10.748 2°36.639 228.4 12.5 229 9.1
2009-03-31 08:21:21 51°10.736 2°36.619 225.6 12.5 224 9.6
2009-03-31 08:21:26 51°10.722 2°36.601 221.9 12.5 223 9
2009-03-31 08:21:31 51°10.71 2°36.583 220 12.4 220 9.2
2009-03-31 08:21:36 51°10.696 2°36.566 217.5 12.4 218 9.2
2009-03-31 08:21:41 51°10.683 2°36.549 216.2 12.5 219 9
2009-03-31 08:21:46 51°10.668 2°36.534 214.6 12.3 214 9
2009-03-31 08:21:51 51°10.654 2°36.518 212.4 12.3 212 9
2009-03-31 08:21:56 51°10.639 2°36.506 208.6 12.3 208 9.1
2009-03-31 08:22:01 51°10.624 2°36.493 206.4 12.2 209 8.9
2009-03-31 08:22:06 51°10.609 2°36.481 204.2 12.1 204 8.9
2009-03-31 08:22:11 51°10.593 2°36.471 200.5 12.2 203 8.7
2009-03-31 08:22:16 51°10.578 2°36.462 198.6 12.1 200 8.7
2009-03-31 08:22:21 51°10.562 2°36.454 196.3 12.1 198 8.5
2009-03-31 08:22:26 51°10.546 2°36.445 194.6 12 196 8.5
2009-03-31 08:22:31 51°10.529 2°36.44 191.6 12 193 8.4
2009-03-31 08:22:36 51°10.513 2°36.434 189.6 11.9 193 8.4
2009-03-31 08:22:41 51°10.497 2°36.431 186.6 11.9 187 8.2
2009-03-31 08:22:46 51°10.481 2°36.427 183.7 11.8 187 8.2
2009-03-31 08:22:51 51°10.464 2°36.425 181.7 11.8 184 8.1
2009-03-31 08:22:56 51°10.448 2°36.424 179.5 11.8 183 8.3
2009-03-31 08:23:01 51°10.432 2°36.422 178.3 11.8 182 8.2
2009-03-31 08:23:06 51°10.416 2°36.422 176.8 11.8 180 8.1
2009-03-31 08:23:11 51°10.399 2°36.422 175.8 11.8 180 8.3
2009-03-31 08:23:16 51°10.383 2°36.422 175 11.8 179 8.6
2009-03-31 08:23:21 51°10.366 2°36.423 174.5 11.9 180 8.8
2009-03-31 08:23:26 51°10.35 2°36.423 174.2 12 179 9.3
2009-03-31 08:23:31 51°10.333 2°36.424 173.5 12.1 179 10.8
2009-03-31 08:23:36 51°10.316 2°36.424 173.2 12.2 179 11.3
2009-03-31 08:23:41 51°10.299 2°36.424 173.2 12.3 180 11.7
2009-03-31 08:23:45 51°10.285 2°36.424 174.5 12.4 183 12.4
2009-03-31 08:23:51 51°10.265 2°36.42 177.7 12.4 186 12.9
2009-03-31 08:23:56 51°10.248 2°36.419 178.7 12.3 184 13.5
2009-03-31 08:24:01 51°10.23 2°36.414 180.3 12.4 188 14.1
2009-03-31 08:24:06 51°10.214 2°36.411 181.5 12.3 187 14.7
2009-03-31 08:24:11 51°10.197 2°36.407 181.7 12.3 189 14.8
2009-03-31 08:24:16 51°10.18 2°36.403 182.5 12.3 189 15.4
2009-03-31 08:24:21 51°10.163 2°36.398 182.8 12.3 189 15.6
2009-03-31 08:24:25 51°10.149 2°36.395 183.3 12.4 191 16
2009-03-31 08:24:31 51°10.129 2°36.389 183.8 12.4 190 16.3
2009-03-31 08:24:36 51°10.112 2°36.384 184 12.4 191 16.4
2009-03-31 08:24:41 51°10.095 2°36.378 184.6 12.4 192 16.3
2009-03-31 08:24:46 51°10.078 2°36.373 184.9 12.4 191 16.6
2009-03-31 08:24:51 51°10.062 2°36.367 185 12.4 192 16.7
2009-03-31 08:24:56 51°10.045 2°36.362 185.2 12.4 191 16.8
2009-03-31 08:25:01 51°10.028 2°36.356 185.2 12.4 192 16.7
2009-03-31 08:25:06 51°10.011 2°36.352 184.3 12.3 190 16.7
2009-03-31 08:25:11 51°9.994 2°36.346 184 12.4 191 16.6
2009-03-31 08:25:16 51°9.977 2°36.342 183.7 12.4 189 16.6
2009-03-31 08:25:21 51°9.96 2°36.337 183 12.4 190 16.6
2009-03-31 08:25:26 51°9.944 2°36.332 183 12.3 190 16.6
2009-03-31 08:25:31 51°9.927 2°36.328 183.1 12.3 190 16.4
2009-03-31 08:25:36 51°9.91 2°36.323 183.1 12.4 190 16.5
2009-03-31 08:25:41 51°9.893 2°36.318 183.2 12.4 190 16.2
2009-03-31 08:25:46 51°9.876 2°36.313 183.2 12.4 190 16.3
2009-03-31 08:25:51 51°9.859 2°36.308 183 12.4 189 16.9
2009-03-31 08:25:56 51°9.842 2°36.303 183 12.4 190 16.5
2009-03-31 08:26:01 51°9.825 2°36.299 182.8 12.4 189 16.1
2009-03-31 08:26:06 51°9.808 2°36.295 182.3 12.4 189 16.1
2009-03-31 08:26:11 51°9.791 2°36.291 182 12.4 189 16.5
2009-03-31 08:26:16 51°9.774 2°36.287 181.7 12.4 188 16.3
2009-03-31 08:26:21 51°9.757 2°36.282 181.9 12.4 189 16
2009-03-31 08:26:26 51°9.74 2°36.279 181.5 12.3 187 16.2
2009-03-31 08:26:31 51°9.723 2°36.276 180.1 12.4 186 16.5
2009-03-31 08:26:36 51°9.706 2°36.273 179.8 12.4 187 16.1
2009-03-31 08:26:41 51°9.689 2°36.27 178.7 12.3 184 15.8
2009-03-31 08:26:46 51°9.672 2°36.27 176.7 11.9 183 16.3
2009-03-31 08:26:51 51°9.657 2°36.268 175.9 11.4 182 15.5
2009-03-31 08:26:56 51°9.641 2°36.267 174.7 10.8 182 15.3
2009-03-31 08:27:01 51°9.627 2°36.267 173.6 10.5 181 16
2009-03-31 08:27:06 51°9.613 2°36.267 172.9 10.1 181 15.8
2009-03-31 08:27:11 51°9.599 2°36.267 172.4 9.8 180 15.7
2009-03-31 08:27:16 51°9.586 2°36.267 171.3 9.2 179 15.3
2009-03-31 08:27:21 51°9.574 2°36.267 170.8 8.6 180 15.3
2009-03-31 08:27:26 51°9.563 2°36.267 170.6 8.1 179 15.3
2009-03-31 08:27:31 51°9.552 2°36.267 169.9 7.8 180 15
2009-03-31 08:27:36 51°9.542 2°36.267 169.3 7.4 180 15
2009-03-31 08:27:41 51°9.532 2°36.268 168.9 7.2 179 15.3
2009-03-31 08:27:46 51°9.522 2°36.268 168.6 6.9 180 14.9
2009-03-31 08:27:51 51°9.513 2°36.268 168.4 6.7 180 15.4
2009-03-31 08:27:56 51°9.504 2°36.268 168.4 6.5 180 15.3
2009-03-31 08:28:01 51°9.495 2°36.268 168.5 6.4 181 15.1
2009-03-31 08:28:06 51°9.486 2°36.268 168.7 6.2 181 15.3
2009-03-31 08:28:11 51°9.477 2°36.267 168.9 6.1 182 15.2
2009-03-31 08:28:16 51°9.469 2°36.267 169.2 6 182 15.1
2009-03-31 08:28:21 51°9.461 2°36.267 168.8 6 180 15.4
2009-03-31 08:28:25 51°9.454 2°36.267 166.5 6 178 15.3
2009-03-31 08:28:31 51°9.444 2°36.269 164.1 5.9 174 15.3
2009-03-31 08:28:36 51°9.436 2°36.27 160 6 171 14.9
2009-03-31 08:28:41 51°9.428 2°36.273 157.7 6 169 15.2
2009-03-31 08:28:46 51°9.42 2°36.276 154.5 6.1 167 14.9
2009-03-31 08:28:51 51°9.412 2°36.28 150.9 6.1 161 14.9
2009-03-31 08:28:56 51°9.403 2°36.285 148.2 6.3 160 15
2009-03-31 08:29:01 51°9.395 2°36.29 146.4 6.3 157 14.9
2009-03-31 08:29:05 51°9.389 2°36.295 144.5 6.5 156 14.7
2009-03-31 08:29:11 51°9.379 2°36.303 140.9 6.5 150 14.5
2009-03-31 08:29:16 51°9.372 2°36.311 138 6.6 149 14.6
2009-03-31 08:29:21 51°9.364 2°36.319 136 6.6 146 14.4
2009-03-31 08:29:26 51°9.357 2°36.328 133.6 6.7 144 14.3
2009-03-31 08:29:31 51°9.349 2°36.337 132 6.7 140 14.4
2009-03-31 08:29:36 51°9.342 2°36.347 129.3 6.7 139 14.6
2009-03-31 08:29:41 51°9.335 2°36.357 127.4 6.8 138 14.6
2009-03-31 08:29:45 51°9.33 2°36.365 126.3 6.8 135 14.6
2009-03-31 08:29:51 51°9.322 2°36.378 124.7 6.8 134 14.6
2009-03-31 08:29:56 51°9.315 2°36.389 123.5 6.9 131 14.6
2009-03-31 08:30:01 51°9.309 2°36.401 122.7 6.8 131 14.6
2009-03-31 08:30:06 51°9.303 2°36.412 121.6 6.8 128 14.6
2009-03-31 08:30:11 51°9.298 2°36.425 118.3 6.7 124 14.6
2009-03-31 08:30:16 51°9.293 2°36.437 115.3 6.7 123 14.5
2009-03-31 08:30:21 51°9.288 2°36.45 113.9 6.7 120 14.2
2009-03-31 08:30:26 51°9.284 2°36.463 111.8 6.7 119 14.2
2009-03-31 08:30:31 51°9.279 2°36.476 110.6 6.7 117 14.3
2009-03-31 08:30:36 51°9.275 2°36.489 109.1 6.7 117 14.4
2009-03-31 08:30:41 51°9.271 2°36.502 108.3 6.5 115 14.3
2009-03-31 08:30:46 51°9.268 2°36.515 107.5 6.3 115 14.1
2009-03-31 08:30:51 51°9.264 2°36.528 106.1 6.1 110 13.9
2009-03-31 08:30:56 51°9.262 2°36.54 103.3 6 110 13.8
2009-03-31 08:31:01 51°9.259 2°36.552 102 5.9 107 13.7
2009-03-31 08:31:06 51°9.257 2°36.565 100.6 5.8 107 13.6
2009-03-31 08:31:11 51°9.255 2°36.577 99.5 5.7 104 13.5
2009-03-31 08:31:16 51°9.253 2°36.589 98.2 5.7 105 13.3
2009-03-31 08:31:21 51°9.251 2°36.601 97.7 5.6 103 13.2
2009-03-31 08:31:26 51°9.25 2°36.614 96.9 5.6 102 13.2
2009-03-31 08:31:31 51°9.248 2°36.626 96.4 5.6 101 13
2009-03-31 08:31:36 51°9.247 2°36.638 95.6 5.5 101 12.9
2009-03-31 08:31:41 51°9.245 2°36.65 95.2 5.5 101 12.8
2009-03-31 08:31:46 51°9.244 2°36.661 94.9 5.3 99 12.6
2009-03-31 08:31:51 51°9.243 2°36.672 94.3 5.2 99 12.6
2009-03-31 08:31:56 51°9.242 2°36.683 93.8 5 98 12.5
2009-03-31 08:32:01 51°9.241 2°36.694 93.6 4.9 98 12.4
2009-03-31 08:32:06 51°9.24 2°36.704 93.4 4.8 97 12.4
2009-03-31 08:32:11 51°9.239 2°36.715 93.1 4.7 98 12.3
2009-03-31 08:32:16 51°9.239 2°36.725 93.1 4.6 96 12.2
2009-03-31 08:32:21 51°9.238 2°36.735 93.1 4.5 97 12.2
2009-03-31 08:32:26 51°9.237 2°36.744 93.3 4.4 97 12.1